createdAt,value
2023-04-15T00:02:00.707Z,5.20
2023-04-15T00:04:28.899Z,4.43
2023-04-15T00:06:56.405Z,4.87
2023-04-15T00:09:23.970Z,4.85
2023-04-15T00:11:51.655Z,4.40
2023-04-15T00:14:19.040Z,4.87
2023-04-15T00:16:46.503Z,4.55
2023-04-15T00:19:14.182Z,4.43
2023-04-15T00:21:42.025Z,5.07
2023-04-15T00:24:09.502Z,5.03
2023-04-15T00:26:37.496Z,4.95
2023-04-15T00:29:05.209Z,5.03
2023-04-15T00:34:01.075Z,4.50
2023-04-15T00:36:28.496Z,4.85
2023-04-15T00:38:55.876Z,4.85
2023-04-15T00:41:23.571Z,4.53
2023-04-15T00:43:51.110Z,4.47
2023-04-15T00:46:20.696Z,4.72
2023-04-15T00:48:48.528Z,4.40
2023-04-15T00:51:16.224Z,4.60
2023-04-15T00:53:43.754Z,4.85
2023-04-15T00:56:11.538Z,4.60
2023-04-15T00:58:39.020Z,4.32
2023-04-15T01:01:06.501Z,4.07
2023-04-15T01:03:34.615Z,4.20
2023-04-15T01:06:04.032Z,4.45
2023-04-15T01:08:31.807Z,4.20
2023-04-15T01:11:03.483Z,4.35
2023-04-15T01:13:32.374Z,4.37
2023-04-15T01:16:00.926Z,3.72
2023-04-15T01:18:29.503Z,4.30
2023-04-15T01:20:57.329Z,4.15
2023-04-15T01:23:25.100Z,3.75
2023-04-15T01:25:53.427Z,3.85
2023-04-15T01:28:21.356Z,4.10
2023-04-15T01:30:49.165Z,3.90
2023-04-15T01:33:16.826Z,3.97
2023-04-15T01:36:05.615Z,4.25
2023-04-15T01:38:33.399Z,4.60
2023-04-15T01:41:00.741Z,4.57
2023-04-15T01:43:29.696Z,4.60
2023-04-15T01:45:58.740Z,4.28
2023-04-15T01:48:27.462Z,4.75
2023-04-15T01:50:59.020Z,4.78
2023-04-15T01:53:28.334Z,3.85
2023-04-15T01:55:57.208Z,4.45
2023-04-15T01:58:26.162Z,5.70
2023-04-15T02:00:55.178Z,4.35
2023-04-15T02:03:25.447Z,4.10
2023-04-15T02:05:54.357Z,3.55
2023-04-15T02:08:23.170Z,4.20
2023-04-15T02:10:52.738Z,4.43
2023-04-15T02:13:21.402Z,3.87
2023-04-15T02:15:52.594Z,3.97
2023-04-15T02:18:21.606Z,4.12
2023-04-15T02:20:52.516Z,4.12
2023-04-15T02:23:21.319Z,3.50
2023-04-15T02:25:53.553Z,3.72
2023-04-15T02:28:22.918Z,3.28
2023-04-15T02:30:53.390Z,3.72
2023-04-15T02:33:22.637Z,3.53
2023-04-15T02:35:51.379Z,3.78
2023-04-15T02:38:20.371Z,3.35
2023-04-15T02:40:50.418Z,3.47
2023-04-15T02:43:19.396Z,3.85
2023-04-15T02:45:48.726Z,4.05
2023-04-15T02:48:19.450Z,3.97
2023-04-15T02:50:48.486Z,4.05
2023-04-15T02:55:46.501Z,3.95
2023-04-15T02:58:15.482Z,4.57
2023-04-15T03:00:44.159Z,3.90
2023-04-15T03:03:15.272Z,4.28
2023-04-15T03:05:44.559Z,4.70
2023-04-15T03:08:14.725Z,4.22
2023-04-15T03:10:43.459Z,4.12
2023-04-15T03:13:12.649Z,4.43
2023-04-15T03:15:42.060Z,4.20
2023-04-15T03:18:11.023Z,4.53
2023-04-15T03:20:40.174Z,5.03
2023-04-15T03:25:37.850Z,4.65
2023-04-15T03:28:07.105Z,4.70
2023-04-15T03:30:35.974Z,4.82
2023-04-15T03:33:04.725Z,5.00
2023-04-15T03:35:34.730Z,4.75
2023-04-15T03:38:03.409Z,4.85
2023-04-15T03:40:32.078Z,5.35
2023-04-15T03:43:00.994Z,5.18
2023-04-15T03:45:29.667Z,5.05
2023-04-15T03:48:07.365Z,5.10
2023-04-15T03:50:46.059Z,5.35
2023-04-15T03:53:15.574Z,5.32
2023-04-15T03:55:44.802Z,5.72
2023-04-15T03:58:13.935Z,5.60
2023-04-15T04:00:42.646Z,5.57
2023-04-15T04:03:12.097Z,5.47
2023-04-15T04:05:41.615Z,5.20
2023-04-15T04:08:11.195Z,5.22
2023-04-15T04:10:40.287Z,5.65
2023-04-15T04:13:08.926Z,5.40
2023-04-15T04:15:37.803Z,5.50
2023-04-15T04:18:06.818Z,4.80
2023-04-15T04:20:35.608Z,5.40
2023-04-15T04:23:04.304Z,4.93
2023-04-15T04:25:33.508Z,5.15
2023-04-15T04:28:02.167Z,5.55
2023-04-15T04:30:30.909Z,5.47
2023-04-15T04:33:00.449Z,5.22
2023-04-15T04:35:29.181Z,5.82
2023-04-15T04:37:57.933Z,5.90
2023-04-15T04:40:27.490Z,5.50
2023-04-15T04:42:56.178Z,5.37
2023-04-15T04:45:24.828Z,4.62
2023-04-15T04:47:53.908Z,4.62
2023-04-15T04:50:22.616Z,4.62
2023-04-15T04:52:51.285Z,4.60
2023-04-15T04:55:20.558Z,4.95
2023-04-15T04:57:49.332Z,4.75
2023-04-15T05:00:18.081Z,4.35
2023-04-15T05:02:47.330Z,4.32
2023-04-15T05:05:16.205Z,4.85
2023-04-15T05:07:44.969Z,6.07
2023-04-15T05:10:15.252Z,6.93
2023-04-15T05:12:44.257Z,5.87
2023-04-15T05:15:12.959Z,4.53
2023-04-15T05:17:41.938Z,4.62
2023-04-15T05:20:11.874Z,4.65
2023-04-15T05:22:40.951Z,6.97
2023-04-15T05:25:10.146Z,4.80
2023-04-15T05:27:38.854Z,4.93
2023-04-15T05:30:08.896Z,5.25
2023-04-15T05:32:38.055Z,5.30
2023-04-15T05:35:08.088Z,5.55
2023-04-15T05:37:36.804Z,4.85
2023-04-15T05:40:06.284Z,5.32
2023-04-15T05:42:35.570Z,5.00
2023-04-15T05:45:08.994Z,5.12
2023-04-15T05:47:38.348Z,5.18
2023-04-15T05:50:08.225Z,5.12
2023-04-15T05:52:37.035Z,4.85
2023-04-15T05:55:06.512Z,4.82
2023-04-15T05:57:35.226Z,4.90
2023-04-15T06:00:05.318Z,4.80
2023-04-15T06:02:38.285Z,4.62
2023-04-15T06:05:09.885Z,5.30
2023-04-15T06:07:38.996Z,4.82
2023-04-15T06:10:08.449Z,4.70
2023-04-15T06:12:37.197Z,4.28
2023-04-15T06:15:06.675Z,4.10
2023-04-15T06:17:35.799Z,3.85
2023-04-15T06:20:04.865Z,4.05
2023-04-15T06:22:33.611Z,4.35
2023-04-15T06:25:02.654Z,3.60
2023-04-15T06:27:31.302Z,3.87
2023-04-15T06:30:00.118Z,3.87
2023-04-15T06:32:29.215Z,3.53
2023-04-15T06:34:58.142Z,3.60
2023-04-15T06:37:26.868Z,4.20
2023-04-15T06:39:56.144Z,3.70
2023-04-15T06:42:25.056Z,4.03
2023-04-15T06:44:53.724Z,3.58
2023-04-15T06:47:22.777Z,3.70
2023-04-15T06:49:51.955Z,4.05
2023-04-15T06:52:20.668Z,4.00
2023-04-15T06:54:49.624Z,3.35
2023-04-15T06:57:18.331Z,3.83
2023-04-15T06:59:47.115Z,3.85
2023-04-15T07:02:16.436Z,4.60
2023-04-15T07:04:45.105Z,4.20
2023-04-15T07:07:13.725Z,4.50
2023-04-15T07:09:42.810Z,4.87
2023-04-15T07:12:11.563Z,4.62
2023-04-15T07:14:40.236Z,3.90
2023-04-15T07:17:09.608Z,3.65
2023-04-15T07:19:38.503Z,3.75
2023-04-15T07:22:07.750Z,3.28
2023-04-15T07:24:36.701Z,3.72
2023-04-15T07:27:05.358Z,3.87
2023-04-15T07:29:34.229Z,3.60
2023-04-15T07:32:03.501Z,5.10
2023-04-15T07:34:32.800Z,2.90
2023-04-15T07:37:02.093Z,3.20
2023-04-15T07:39:31.525Z,3.03
2023-04-15T07:42:00.319Z,3.33
2023-04-15T07:44:29.042Z,3.60
2023-04-15T07:46:57.978Z,5.37
2023-04-15T07:49:26.615Z,5.82
2023-04-15T07:51:56.545Z,6.20
2023-04-15T07:54:25.779Z,5.15
2023-04-15T07:56:54.589Z,2.53
2023-04-15T07:59:23.229Z,4.22
2023-04-15T08:01:52.225Z,3.87
2023-04-15T08:04:21.489Z,4.00
2023-04-15T08:06:50.456Z,4.12
2023-04-15T08:09:19.432Z,3.72
2023-04-15T08:11:51.656Z,3.83
2023-04-15T08:14:20.790Z,2.87
2023-04-15T08:16:49.731Z,3.17
2023-04-15T08:19:18.442Z,2.67
2023-04-15T08:21:47.350Z,2.80
2023-04-15T08:24:16.260Z,2.65
2023-04-15T08:26:44.899Z,2.40
2023-04-15T08:29:13.814Z,2.37
2023-04-15T08:31:42.849Z,2.10
2023-04-15T08:34:12.424Z,1.67
2023-04-15T08:36:41.610Z,1.75
2023-04-15T08:39:10.596Z,1.67
2023-04-15T08:41:41.674Z,1.30
2023-04-15T08:44:11.321Z,1.37
2023-04-15T08:46:42.542Z,1.40
2023-04-15T08:49:13.233Z,1.60
2023-04-15T08:51:42.046Z,1.40
2023-04-15T08:54:11.132Z,1.58
2023-04-15T08:56:40.865Z,1.30
2023-04-15T08:59:09.881Z,1.60
2023-04-15T09:01:39.292Z,1.98
2023-04-15T09:04:08.352Z,1.92
2023-04-15T09:06:37.194Z,2.17
2023-04-15T09:09:06.192Z,2.00
2023-04-15T09:11:34.854Z,2.20
2023-04-15T09:14:03.742Z,2.25
2023-04-15T09:16:53.165Z,2.20
2023-04-15T09:19:23.897Z,2.17
2023-04-15T09:21:58.887Z,2.28
2023-04-15T09:24:37.468Z,1.10
2023-04-15T09:27:06.859Z,1.37
2023-04-15T09:29:35.574Z,1.35
2023-04-15T09:32:11.770Z,1.27
2023-04-15T09:34:40.745Z,0.90
2023-04-15T09:37:10.984Z,0.90
2023-04-15T09:39:51.079Z,1.08
2023-04-15T09:42:26.962Z,0.90
2023-04-15T09:44:56.118Z,1.00
2023-04-15T09:47:32.204Z,0.80
2023-04-15T09:50:01.693Z,1.00
2023-04-15T09:52:30.690Z,1.20
2023-04-15T09:55:00.239Z,1.30
2023-04-15T09:57:36.700Z,1.12
2023-04-15T10:00:06.903Z,1.17
2023-04-15T10:02:35.861Z,0.80
2023-04-15T10:05:06.019Z,0.70
2023-04-15T10:07:35.165Z,0.95
2023-04-15T10:10:05.412Z,0.50
2023-04-15T10:12:35.893Z,0.75
2023-04-15T10:15:05.662Z,0.95
2023-04-15T10:17:36.993Z,1.00
2023-04-15T10:20:07.164Z,0.60
2023-04-15T10:22:36.715Z,0.65
2023-04-15T10:25:06.019Z,0.70
2023-04-15T10:27:35.134Z,0.90
2023-04-15T10:30:04.584Z,0.80
2023-04-15T10:32:33.432Z,1.00
2023-04-15T10:35:02.404Z,1.00
2023-04-15T10:37:36.361Z,1.25
2023-04-15T10:40:24.457Z,1.00
2023-04-15T10:43:00.267Z,0.60
2023-04-15T10:45:33.220Z,1.00
2023-04-15T10:48:04.189Z,0.80
2023-04-15T10:50:33.328Z,0.90
2023-04-15T10:53:05.589Z,0.68
2023-04-15T10:55:35.365Z,0.88
2023-04-15T10:58:04.404Z,0.62
2023-04-15T11:00:35.242Z,0.60
2023-04-15T11:03:08.936Z,0.80
2023-04-15T11:05:51.103Z,0.80
2023-04-15T11:08:21.265Z,0.85
2023-04-15T11:10:53.872Z,0.60
2023-04-15T11:13:25.195Z,0.88
2023-04-15T11:15:56.836Z,0.60
2023-04-15T11:18:28.520Z,0.70
2023-04-15T11:20:59.790Z,0.80
2023-04-15T11:23:35.694Z,0.70
2023-04-15T11:26:09.258Z,0.80
2023-04-15T11:28:40.793Z,0.85
2023-04-15T11:31:14.122Z,0.60
2023-04-15T11:34:04.117Z,0.70
2023-04-15T11:36:33.127Z,0.80
2023-04-15T11:39:02.147Z,0.70
2023-04-15T11:41:30.934Z,0.80
2023-04-15T11:43:59.800Z,0.85
2023-04-15T11:46:30.979Z,0.82
2023-04-15T11:49:00.343Z,70.43
2023-04-15T11:51:33.409Z,15.60
2023-04-15T11:54:01.279Z,36.53
2023-04-15T11:56:29.216Z,34.00
2023-04-15T11:58:59.362Z,4.10
2023-04-15T12:01:39.872Z,1.20
2023-04-15T12:04:16.491Z,10.32
2023-04-15T12:06:43.972Z,14.23
2023-04-15T12:09:16.573Z,14.48
2023-04-15T12:14:31.292Z,12.40
2023-04-15T12:17:01.418Z,5.75
2023-04-15T12:19:29.978Z,6.55
2023-04-15T12:22:00.615Z,1.67
2023-04-15T12:24:31.698Z,2.08
2023-04-15T12:27:06.144Z,3.10
2023-04-15T12:29:35.255Z,3.60
2023-04-15T12:32:13.756Z,41.67
2023-04-15T12:34:52.453Z,11.02
2023-04-15T12:37:20.618Z,1.92
2023-04-15T12:39:49.616Z,1.42
2023-04-15T12:42:18.264Z,1.20
2023-04-15T12:44:46.915Z,10.70
2023-04-15T12:47:14.810Z,23.70
2023-04-15T12:49:42.208Z,16.08
2023-04-15T12:52:09.994Z,5.25
2023-04-15T12:54:37.488Z,2.28
2023-04-15T12:57:07.130Z,13.57
2023-04-15T12:59:36.035Z,21.27
2023-04-15T13:02:04.136Z,3.55
2023-04-15T13:04:32.077Z,1.92
2023-04-15T13:06:59.914Z,1.42
2023-04-15T13:09:27.356Z,1.67
2023-04-15T13:11:54.881Z,1.80
2023-04-15T13:14:22.670Z,4.78
2023-04-15T13:16:50.559Z,1.70
2023-04-15T13:19:18.049Z,2.62
2023-04-15T13:21:46.082Z,1.75
2023-04-15T13:24:13.661Z,3.12
2023-04-15T13:26:41.900Z,4.03
2023-04-15T13:29:09.880Z,6.50
2023-04-15T13:31:37.377Z,10.27
2023-04-15T13:34:05.102Z,4.40
2023-04-15T13:36:32.987Z,1.50
2023-04-15T13:39:00.648Z,1.52
2023-04-15T13:41:28.017Z,1.45
2023-04-15T13:43:55.787Z,1.65
2023-04-15T13:46:23.296Z,1.25
2023-04-15T13:48:50.846Z,1.20
2023-04-15T13:51:18.650Z,1.25
2023-04-15T13:53:46.289Z,1.00
2023-04-15T13:56:13.746Z,1.30
2023-04-15T13:58:41.732Z,1.73
2023-04-15T14:01:09.236Z,1.80
2023-04-15T14:03:37.306Z,6.15
2023-04-15T14:06:05.864Z,15.25
2023-04-15T14:08:33.772Z,7.28
2023-04-15T14:11:01.480Z,7.28
2023-04-15T14:13:28.966Z,0.80
2023-04-15T14:15:57.155Z,0.93
2023-04-15T14:18:24.942Z,0.85
2023-04-15T14:20:52.445Z,1.20
2023-04-15T14:23:19.980Z,1.30
2023-04-15T14:25:48.468Z,0.93
2023-04-15T14:28:16.083Z,1.40
2023-04-15T14:30:44.006Z,2.08
2023-04-15T14:33:11.830Z,1.00
2023-04-15T14:35:39.362Z,1.30
2023-04-15T14:38:10.448Z,0.70
2023-04-15T14:40:40.684Z,0.97
2023-04-15T14:43:08.201Z,0.90
2023-04-15T14:45:36.441Z,1.20
2023-04-15T14:48:06.450Z,1.50
2023-04-15T14:50:34.048Z,1.33
2023-04-15T14:53:01.713Z,1.80
2023-04-15T14:55:29.405Z,1.20
2023-04-15T14:57:56.830Z,1.70
2023-04-15T15:00:24.442Z,1.02
2023-04-15T15:02:52.134Z,0.93
2023-04-15T15:05:19.700Z,0.93
2023-04-15T15:07:48.138Z,1.30
2023-04-15T15:10:15.860Z,1.42
2023-04-15T15:12:43.325Z,1.37
2023-04-15T15:15:24.933Z,1.42
2023-04-15T15:17:56.216Z,3.37
2023-04-15T15:20:24.996Z,28.25
2023-04-15T15:22:52.417Z,3.55
2023-04-15T15:25:20.168Z,2.65
2023-04-15T15:27:47.632Z,1.30
2023-04-15T15:30:15.371Z,1.30
2023-04-15T15:32:43.363Z,1.33
2023-04-15T15:35:11.200Z,1.35
2023-04-15T15:37:38.792Z,1.58
2023-04-15T15:40:07.785Z,2.05
2023-04-15T15:42:36.123Z,2.45
2023-04-15T15:45:04.644Z,2.85
2023-04-15T15:47:33.540Z,2.97
2023-04-15T15:50:05.970Z,2.72
2023-04-15T15:52:34.024Z,2.60
2023-04-15T15:55:02.028Z,2.80
2023-04-15T15:57:29.415Z,3.35
2023-04-15T16:00:10.420Z,3.28
2023-04-15T16:05:11.326Z,3.05
2023-04-15T16:07:38.758Z,2.90
2023-04-15T16:10:07.103Z,3.35
2023-04-15T16:12:35.008Z,3.50
2023-04-15T16:15:03.827Z,5.55
2023-04-15T16:17:32.328Z,7.05
2023-04-15T16:20:01.072Z,7.30
2023-04-15T16:22:29.036Z,6.75
2023-04-15T16:24:56.704Z,5.35
2023-04-15T16:27:24.425Z,4.87
2023-04-15T16:29:51.879Z,4.12
2023-04-15T16:32:19.992Z,3.95
2023-04-15T16:34:47.867Z,3.67
2023-04-15T16:37:15.438Z,3.78
2023-04-15T16:39:43.189Z,38.22
2023-04-15T16:42:10.564Z,41.28
2023-04-15T16:44:38.016Z,50.78
2023-04-15T16:47:05.872Z,65.50
2023-04-15T16:49:34.914Z,28.25
2023-04-15T16:52:02.626Z,31.10
2023-04-15T16:54:30.358Z,48.97
2023-04-15T16:56:58.626Z,28.30
2023-04-15T16:59:26.292Z,23.05
2023-04-15T17:01:54.964Z,20.35
2023-04-15T17:04:22.693Z,17.62
2023-04-15T17:06:50.424Z,34.03
2023-04-15T17:09:18.223Z,9.00
2023-04-15T17:11:45.977Z,4.82
2023-04-15T17:14:13.383Z,7.45
2023-04-15T17:16:43.262Z,8.13
2023-04-15T17:19:10.762Z,7.32
2023-04-15T17:21:44.664Z,4.03
2023-04-15T17:24:19.273Z,7.62
2023-04-15T17:29:19.302Z,5.30
2023-04-15T17:31:49.581Z,5.60
2023-04-15T17:34:49.728Z,5.28
2023-04-15T17:37:38.805Z,4.60
2023-04-15T17:40:26.085Z,3.92
2023-04-15T17:43:13.638Z,4.25
2023-04-15T17:46:00.999Z,4.65
2023-04-15T17:48:49.473Z,4.57
2023-04-15T17:51:36.831Z,4.97
2023-04-15T17:54:28.005Z,5.35
2023-04-15T17:57:15.568Z,5.37
2023-04-15T18:00:03.349Z,6.72
2023-04-15T18:02:59.882Z,7.28
2023-04-15T18:05:47.841Z,7.78
2023-04-15T18:08:35.372Z,7.25
2023-04-15T18:11:23.099Z,6.50
2023-04-15T18:14:11.293Z,6.50
2023-04-15T18:17:00.613Z,6.28
2023-04-15T18:19:47.994Z,6.35
2023-04-15T18:22:15.761Z,7.22
2023-04-15T18:24:43.293Z,7.65
2023-04-15T18:27:10.814Z,8.05
2023-04-15T18:29:38.848Z,7.93
2023-04-15T18:32:06.520Z,8.93
2023-04-15T18:34:34.292Z,8.27
2023-04-15T18:37:02.199Z,9.55
2023-04-15T18:39:29.747Z,11.65
2023-04-15T18:41:57.426Z,9.27
2023-04-15T18:44:25.345Z,9.45
2023-04-15T18:46:52.751Z,8.93
2023-04-15T18:49:20.134Z,8.80
2023-04-15T18:51:47.822Z,10.10
2023-04-15T18:54:15.564Z,10.38
2023-04-15T18:56:42.935Z,11.75
2023-04-15T18:59:28.801Z,17.40
2023-04-15T19:01:59.635Z,14.55
2023-04-15T19:04:29.395Z,13.60
2023-04-15T19:06:57.308Z,13.75
2023-04-15T19:09:24.862Z,12.50
2023-04-15T19:11:52.544Z,11.52
2023-04-15T19:14:22.784Z,12.35
2023-04-15T19:16:50.371Z,18.70
2023-04-15T19:19:18.169Z,22.42
2023-04-15T19:21:47.586Z,17.30
2023-04-15T19:24:15.130Z,15.20
2023-04-15T19:26:44.642Z,14.02
2023-04-15T19:29:12.238Z,12.20
2023-04-15T19:31:39.995Z,13.93
2023-04-15T19:34:07.730Z,12.75
2023-04-15T19:36:35.371Z,13.35
2023-04-15T19:39:03.008Z,14.20
2023-04-15T19:41:30.862Z,14.87
2023-04-15T19:43:59.674Z,13.82
2023-04-15T19:46:27.834Z,14.48
2023-04-15T19:48:55.788Z,13.80
2023-04-15T19:51:23.231Z,14.80
2023-04-15T19:53:50.957Z,14.98
2023-04-15T19:56:18.752Z,15.02
2023-04-15T19:58:50.798Z,13.85
2023-04-15T20:01:19.135Z,15.48
2023-04-15T20:03:47.095Z,14.45
2023-04-15T20:06:15.300Z,14.38
2023-04-15T20:08:43.247Z,13.35
2023-04-15T20:11:12.069Z,12.88
2023-04-15T20:13:42.608Z,12.98
2023-04-15T20:16:11.654Z,12.20
2023-04-15T20:18:39.472Z,11.68
2023-04-15T20:21:06.882Z,12.85
2023-04-15T20:23:35.909Z,11.00
2023-04-15T20:26:03.683Z,11.50
2023-04-15T20:28:31.159Z,11.80
2023-04-15T20:31:00.533Z,9.55
2023-04-15T20:33:28.286Z,8.43
2023-04-15T20:35:55.796Z,8.15
2023-04-15T20:38:23.197Z,8.20
2023-04-15T20:40:51.242Z,8.02
2023-04-15T20:43:18.653Z,8.45
2023-04-15T20:45:46.409Z,8.00
2023-04-15T20:48:14.218Z,8.85
2023-04-15T20:50:41.702Z,8.05
2023-04-15T20:53:09.107Z,8.32
2023-04-15T20:55:36.806Z,8.43
2023-04-15T20:58:04.389Z,8.27
2023-04-15T21:00:33.064Z,7.82
2023-04-15T21:03:01.260Z,8.55
2023-04-15T21:05:28.724Z,8.48
2023-04-15T21:07:56.352Z,8.27
2023-04-15T21:10:25.172Z,8.65
2023-04-15T21:12:52.575Z,9.60
2023-04-15T21:15:20.008Z,8.00
2023-04-15T21:17:47.787Z,6.57
2023-04-15T21:20:15.534Z,6.40
2023-04-15T21:22:42.891Z,5.70
2023-04-15T21:25:10.612Z,5.47
2023-04-15T21:27:38.064Z,5.03
2023-04-15T21:30:06.081Z,4.93
2023-04-15T21:32:33.879Z,5.10
2023-04-15T21:35:01.469Z,4.60
2023-04-15T21:37:29.058Z,4.47
2023-04-15T21:39:56.791Z,4.62
2023-04-15T21:42:24.179Z,4.32
2023-04-15T21:44:51.588Z,5.40
2023-04-15T21:47:19.332Z,6.47
2023-04-15T21:49:46.874Z,5.80
2023-04-15T21:52:14.302Z,5.68
2023-04-15T21:54:42.082Z,5.12
2023-04-15T21:57:09.470Z,5.87
2023-04-15T21:59:36.936Z,5.90
2023-04-15T22:02:04.745Z,6.60
2023-04-15T22:04:32.486Z,6.03
2023-04-15T22:07:02.300Z,6.25
2023-04-15T22:09:29.681Z,5.90
2023-04-15T22:11:59.352Z,5.70
2023-04-15T22:14:27.084Z,5.53
2023-04-15T22:16:55.090Z,5.70
2023-04-15T22:19:23.155Z,5.55
2023-04-15T22:21:51.237Z,5.40
2023-04-15T22:24:39.161Z,5.87
2023-04-15T22:27:06.338Z,5.40
2023-04-15T22:29:33.763Z,5.20
2023-04-15T22:32:01.213Z,5.70
2023-04-15T22:34:28.860Z,6.05
2023-04-15T22:36:56.267Z,5.75
2023-04-15T22:39:23.704Z,5.87
2023-04-15T22:41:51.414Z,6.43
2023-04-15T22:44:18.847Z,6.50
2023-04-15T22:46:46.247Z,5.65
2023-04-15T22:49:13.954Z,5.60
2023-04-15T22:51:41.370Z,4.55
2023-04-15T22:54:08.865Z,5.50
2023-04-15T22:56:36.531Z,5.20
2023-04-15T22:59:04.006Z,5.07
2023-04-15T23:01:32.403Z,5.10
2023-04-15T23:04:06.497Z,5.35
2023-04-15T23:06:34.834Z,5.10
2023-04-15T23:09:02.527Z,4.97
2023-04-15T23:11:30.070Z,5.20
2023-04-15T23:13:57.497Z,4.85
2023-04-15T23:16:25.469Z,4.43
2023-04-15T23:18:52.955Z,4.62
2023-04-15T23:21:20.903Z,4.07
2023-04-15T23:23:48.556Z,3.85
2023-04-15T23:26:15.942Z,3.87
2023-04-15T23:28:43.382Z,3.87
2023-04-15T23:31:11.125Z,3.70
2023-04-15T23:33:38.632Z,3.95
2023-04-15T23:36:06.419Z,3.65
2023-04-15T23:38:34.120Z,3.50
2023-04-15T23:41:01.629Z,3.50
2023-04-15T23:43:29.063Z,4.00
2023-04-15T23:45:56.755Z,3.80
2023-04-15T23:48:24.187Z,3.80
2023-04-15T23:50:51.819Z,3.65
2023-04-15T23:53:19.585Z,4.15
2023-04-15T23:55:47.950Z,3.75
2023-04-15T23:58:15.326Z,3.40
